Time;durP1;ratioP1;P1;durP2;ratioP2;P2;SDS_P1;SDS_P2;PMS_P1;PMS_P2;Temp;Humidity;BMP_temperature;BMP_pressure;BME280_temperature;BME280_humidity;BME280_pressure;Samples;Min_cycle;Max_cycle;Signal;HPM_P1;HPM_P2
2024/03/28 00:01:01;;;;;;;7.28;4.97;;;8.60;99.90;;;;;;5013333;28;20438;-78
2024/03/28 00:03:27;;;;;;;6.65;4.97;;;8.60;99.90;;;;;;5012870;28;20041;-78
2024/03/28 00:05:58;;;;;;;6.82;4.88;;;8.60;99.90;;;;;;5014241;28;20018;-78
2024/03/28 00:08:24;;;;;;;7.85;5.10;;;8.70;99.90;;;;;;5013818;28;20235;-78
2024/03/28 00:10:51;;;;;;;8.15;5.28;;;8.70;99.90;;;;;;5014210;28;20487;-78
2024/03/28 00:13:18;;;;;;;7.13;5.15;;;8.70;99.90;;;;;;5013553;28;20069;-78
2024/03/28 00:15:44;;;;;;;8.85;5.20;;;8.70;99.90;;;;;;5014335;28;20025;-78
2024/03/28 00:18:10;;;;;;;6.45;4.82;;;8.70;99.90;;;;;;5013381;28;20068;-77
2024/03/28 00:20:37;;;;;;;11.25;5.32;;;8.80;99.90;;;;;;5014517;28;20073;-77
2024/03/28 00:23:04;;;;;;;9.02;5.40;;;8.80;99.90;;;;;;5013455;28;20061;-77
2024/03/28 00:25:30;;;;;;;7.32;5.20;;;8.80;99.90;;;;;;5014199;28;20487;-77
2024/03/28 00:28:02;;;;;;;8.90;6.03;;;8.80;99.90;;;;;;5013238;28;20028;-78
2024/03/28 00:30:28;;;;;;;6.80;5.10;;;8.80;99.90;;;;;;5013983;28;20022;-78
2024/03/28 00:32:53;;;;;;;8.32;5.57;;;8.80;99.90;;;;;;5012977;28;20491;-78
2024/03/28 00:35:19;;;;;;;9.95;5.07;;;8.80;99.90;;;;;;5013760;28;20030;-78
2024/03/28 00:37:45;;;;;;;6.78;5.30;;;8.80;99.90;;;;;;5011789;28;20018;-78
2024/03/28 00:40:12;;;;;;;8.40;5.35;;;8.80;99.90;;;;;;5014010;28;20026;-78
2024/03/28 00:42:38;;;;;;;9.05;5.25;;;8.80;99.90;;;;;;5013040;28;20373;-77
2024/03/28 00:45:04;;;;;;;8.60;5.53;;;8.80;99.90;;;;;;5012650;28;20114;-77
2024/03/28 00:47:30;;;;;;;8.02;5.25;;;8.80;99.90;;;;;;5013034;28;20030;-78
2024/03/28 00:49:56;;;;;;;6.97;5.10;;;8.70;99.90;;;;;;5012585;28;20049;-78
2024/03/28 00:52:23;;;;;;;7.10;4.90;;;8.70;99.90;;;;;;5013057;28;20510;-78
2024/03/28 00:54:49;;;;;;;7.75;5.57;;;8.70;99.90;;;;;;5013717;28;20034;-78
2024/03/28 00:57:14;;;;;;;8.32;5.25;;;8.70;99.90;;;;;;5012927;28;20028;-78
2024/03/28 00:59:40;;;;;;;7.70;5.13;;;8.70;99.90;;;;;;5012236;28;20061;-78
2024/03/28 01:02:06;;;;;;;7.40;5.03;;;8.70;99.90;;;;;;5012607;28;20534;-78
2024/03/28 01:04:31;;;;;;;6.68;5.00;;;8.70;99.90;;;;;;5013336;28;20018;-78
2024/03/28 01:06:57;;;;;;;6.32;4.57;;;8.70;99.90;;;;;;5012542;28;20022;-78
2024/03/28 01:09:22;;;;;;;7.28;5.10;;;8.70;99.90;;;;;;5013453;28;20537;-77
2024/03/28 01:11:48;;;;;;;10.05;5.55;;;8.70;99.90;;;;;;5012538;28;20041;-78
2024/03/28 01:14:14;;;;;;;7.35;5.15;;;8.70;99.90;;;;;;5013314;28;20398;-78
2024/03/28 01:16:40;;;;;;;8.68;5.55;;;8.70;99.90;;;;;;5012360;28;20045;-78
2024/03/28 01:19:05;;;;;;;8.75;4.97;;;8.70;99.90;;;;;;5012831;28;20046;-78
2024/03/28 01:21:31;;;;;;;6.85;5.13;;;8.70;99.90;;;;;;5012505;28;20111;-77
2024/03/28 01:23:56;;;;;;;7.72;5.13;;;8.70;99.90;;;;;;5013021;28;20018;-77
2024/03/28 01:26:22;;;;;;;6.32;4.82;;;8.70;99.90;;;;;;5013288;28;20042;-77
2024/03/28 01:28:48;;;;;;;6.63;4.68;;;8.70;99.90;;;;;;5011092;28;20010;-77
2024/03/28 01:31:13;;;;;;;6.10;4.40;;;8.70;99.90;;;;;;5013121;28;20022;-77
2024/03/28 01:33:39;;;;;;;6.63;4.38;;;8.70;99.90;;;;;;5012162;28;20025;-77
2024/03/28 01:36:05;;;;;;;6.78;4.65;;;8.70;99.90;;;;;;5013120;28;20061;-77
2024/03/28 01:38:31;;;;;;;6.78;4.10;;;8.70;99.90;;;;;;5011938;28;20029;-77
2024/03/28 01:40:57;;;;;;;5.50;4.60;;;8.70;99.90;;;;;;5012760;28;20022;-77
2024/03/28 01:43:23;;;;;;;7.68;4.55;;;8.70;99.90;;;;;;5011862;28;20056;-77
2024/03/28 01:45:49;;;;;;;8.32;5.32;;;8.70;99.90;;;;;;5011301;28;20237;-77
2024/03/28 01:48:15;;;;;;;7.30;5.05;;;8.70;99.90;;;;;;5011703;28;20213;-77
2024/03/28 01:50:41;;;;;;;6.80;4.60;;;8.70;99.90;;;;;;5012841;28;20094;-77
2024/03/28 01:53:07;;;;;;;8.13;5.78;;;8.70;99.90;;;;;;5011864;28;20121;-77
2024/03/28 01:55:34;;;;;;;10.05;6.97;;;8.70;99.90;;;;;;5012609;28;20097;-77
2024/03/28 01:58:00;;;;;;;9.77;6.60;;;8.70;99.90;;;;;;5011975;28;20018;-77
2024/03/28 02:00:27;;;;;;;8.10;6.15;;;8.70;99.90;;;;;;5011296;28;20055;-77
2024/03/28 02:02:55;;;;;;;10.45;6.20;;;8.70;99.90;;;;;;5011970;28;20029;-78
2024/03/28 02:05:22;;;;;;;8.20;6.00;;;8.70;99.90;;;;;;5012799;28;20022;-77
2024/03/28 02:07:47;;;;;;;7.95;6.15;;;8.70;99.90;;;;;;5012132;28;20018;-77
2024/03/28 02:10:13;;;;;;;10.13;6.47;;;8.70;99.90;;;;;;5011066;28;20519;-77
2024/03/28 02:12:40;;;;;;;7.53;5.35;;;8.70;99.90;;;;;;5011822;28;20142;-77
2024/03/28 02:15:06;;;;;;;7.63;5.75;;;8.70;99.90;;;;;;5012763;28;20479;-77
2024/03/28 02:17:32;;;;;;;7.88;6.10;;;8.70;99.90;;;;;;5011459;28;20060;-77
2024/03/28 02:19:58;;;;;;;7.63;5.75;;;8.60;99.90;;;;;;5011253;28;20065;-77
2024/03/28 02:22:23;;;;;;;8.00;5.70;;;8.70;99.90;;;;;;5011419;28;20112;-77
2024/03/28 02:24:50;;;;;;;9.07;5.22;;;8.60;99.90;;;;;;5012566;28;20101;-77
2024/03/28 02:27:16;;;;;;;7.88;5.65;;;8.60;99.90;;;;;;5014253;28;20018;-77
2024/03/28 02:29:42;;;;;;;7.65;5.50;;;8.60;99.90;;;;;;5015010;28;20514;-77
2024/03/28 02:32:08;;;;;;;7.00;5.35;;;8.60;99.90;;;;;;5015269;28;20037;-77
2024/03/28 02:34:33;;;;;;;7.53;4.90;;;8.60;99.90;;;;;;5016125;28;20025;-77
2024/03/28 02:36:59;;;;;;;7.05;4.32;;;8.60;99.90;;;;;;5015214;28;20507;-77
2024/03/28 02:39:25;;;;;;;7.70;4.15;;;8.60;99.90;;;;;;5016017;28;20128;-77
2024/03/28 02:41:52;;;;;;;7.93;4.88;;;8.60;99.90;;;;;;5015234;28;20033;-77
2024/03/28 02:44:17;;;;;;;6.55;3.80;;;8.60;99.90;;;;;;5015886;28;20396;-77
2024/03/28 02:46:43;;;;;;;7.10;3.90;;;8.60;99.90;;;;;;5015178;28;20017;-77
2024/03/28 02:49:09;;;;;;;6.85;4.20;;;8.60;99.90;;;;;;5014057;28;20037;-77
2024/03/28 02:51:34;;;;;;;6.90;3.80;;;8.60;99.90;;;;;;5014741;28;20219;-77
2024/03/28 02:54:00;;;;;;;5.40;3.78;;;8.60;99.90;;;;;;5015150;28;20026;-77
2024/03/28 02:56:25;;;;;;;5.00;3.38;;;8.60;99.90;;;;;;5015702;28;20022;-77
2024/03/28 02:58:51;;;;;;;6.07;3.40;;;8.60;99.90;;;;;;5014761;28;20411;-77
2024/03/28 03:01:16;;;;;;;6.05;4.03;;;8.60;99.90;;;;;;5015492;28;20022;-77
2024/03/28 03:03:42;;;;;;;7.32;4.05;;;8.60;99.90;;;;;;5014387;28;20092;-77
2024/03/28 03:06:08;;;;;;;6.28;3.70;;;8.60;99.90;;;;;;5015428;28;20040;-77
2024/03/28 03:08:34;;;;;;;5.10;3.70;;;8.50;99.90;;;;;;5015049;28;20026;-77
2024/03/28 03:10:59;;;;;;;7.28;3.40;;;8.60;99.90;;;;;;5015183;28;20057;-77
2024/03/28 03:13:25;;;;;;;4.88;3.13;;;8.60;99.90;;;;;;5014847;28;20119;-77
2024/03/28 03:15:52;;;;;;;5.70;3.67;;;8.60;99.90;;;;;;5015202;28;20136;-77
2024/03/28 03:18:25;;;;;;;4.80;3.20;;;8.60;99.90;;;;;;5014470;28;20092;-77
2024/03/28 03:21:00;;;;;;;6.70;3.45;;;8.50;99.90;;;;;;5014072;28;20136;-77
2024/03/28 03:23:27;;;;;;;4.47;3.22;;;8.60;99.90;;;;;;5014761;28;20391;-77
2024/03/28 03:25:59;;;;;;;4.85;3.03;;;8.50;99.90;;;;;;5015394;28;20220;-76
2024/03/28 03:36:40;;;;;;;4.85;3.35;;;8.50;99.90;;;;;;5014200;28;20559;-78
2024/03/28 03:39:05;;;;;;;6.20;3.33;;;8.60;99.90;;;;;;5014088;28;20100;-76
2024/03/28 03:41:31;;;;;;;4.38;3.28;;;8.60;99.90;;;;;;5014863;28;20122;-77
2024/03/28 03:43:57;;;;;;;6.90;4.00;;;8.60;99.90;;;;;;5012937;28;20026;-77
2024/03/28 03:46:22;;;;;;;6.28;4.28;;;8.60;99.90;;;;;;5013657;28;20078;-77
2024/03/28 03:48:48;;;;;;;6.93;4.53;;;8.60;99.90;;;;;;5012774;28;20033;-78
2024/03/28 03:51:17;;;;;;;6.03;4.65;;;8.60;99.90;;;;;;5014890;28;20034;-77
2024/03/28 03:53:42;;;;;;;7.95;4.97;;;8.60;99.90;;;;;;5013893;28;20606;-77
2024/03/28 03:56:08;;;;;;;7.18;4.88;;;8.50;99.90;;;;;;5014527;28;20207;-77
2024/03/28 03:58:34;;;;;;;5.78;4.50;;;8.50;99.90;;;;;;5014346;28;20101;-77
2024/03/28 04:01:00;;;;;;;5.57;4.30;;;8.50;99.90;;;;;;5014841;28;20405;-78
2024/03/28 04:03:26;;;;;;;8.60;4.63;;;8.50;99.90;;;;;;5014092;28;20025;-78
2024/03/28 04:05:51;;;;;;;6.65;3.90;;;8.50;99.90;;;;;;5014355;28;20105;-78
2024/03/28 04:08:17;;;;;;;4.97;3.88;;;8.50;99.90;;;;;;5013557;28;20122;-78
2024/03/28 04:10:43;;;;;;;6.93;3.85;;;8.40;99.90;;;;;;5014231;28;20021;-78
2024/03/28 04:13:08;;;;;;;6.18;4.05;;;8.40;99.90;;;;;;5013368;28;20084;-78
2024/03/28 04:15:34;;;;;;;5.65;4.13;;;8.40;99.90;;;;;;5014135;28;20550;-78
2024/03/28 04:18:00;;;;;;;5.55;4.05;;;8.40;99.90;;;;;;5013552;28;20049;-78
2024/03/28 04:20:26;;;;;;;5.47;4.07;;;8.40;99.90;;;;;;5014140;28;20104;-79
2024/03/28 04:22:51;;;;;;;5.95;3.25;;;8.40;99.90;;;;;;5013538;28;20018;-78
2024/03/28 04:25:17;;;;;;;5.10;3.63;;;8.40;99.90;;;;;;5013919;28;20549;-78
2024/03/28 04:27:43;;;;;;;5.78;3.53;;;8.40;99.90;;;;;;5013722;28;20072;-78
2024/03/28 04:30:10;;;;;;;4.97;3.60;;;8.30;99.90;;;;;;5012644;28;20026;-78
2024/03/28 04:32:36;;;;;;;4.75;3.40;;;8.30;99.90;;;;;;5013448;28;20026;-78
2024/03/28 04:35:01;;;;;;;5.32;3.45;;;8.30;99.90;;;;;;5013784;28;20030;-78
2024/03/28 04:37:27;;;;;;;5.72;3.53;;;8.30;99.90;;;;;;5012824;28;20029;-78
2024/03/28 04:39:52;;;;;;;7.05;3.78;;;8.30;99.90;;;;;;5014195;28;20053;-78
2024/03/28 04:42:18;;;;;;;6.72;3.65;;;8.30;99.90;;;;;;5013206;28;20026;-77
2024/03/28 04:44:44;;;;;;;6.65;4.53;;;8.30;99.90;;;;;;5012836;28;20498;-78
2024/03/28 04:47:09;;;;;;;6.63;4.55;;;8.20;99.90;;;;;;5013183;28;20025;-78
2024/03/28 04:49:35;;;;;;;7.00;4.45;;;8.20;99.90;;;;;;5013205;28;20026;-78
2024/03/28 04:52:01;;;;;;;8.10;5.10;;;8.20;99.90;;;;;;5013999;28;20034;-78
2024/03/28 04:54:26;;;;;;;7.38;5.22;;;8.20;99.90;;;;;;5011428;28;20483;-78
2024/03/28 04:56:52;;;;;;;8.95;6.00;;;8.10;99.90;;;;;;5013295;28;20387;-76
2024/03/28 04:59:18;;;;;;;7.65;5.43;;;8.10;99.90;;;;;;5012533;28;20022;-79
2024/03/28 05:01:43;;;;;;;7.88;5.63;;;8.10;99.90;;;;;;5013244;28;20018;-79
2024/03/28 05:04:09;;;;;;;7.63;5.65;;;8.10;99.90;;;;;;5012838;28;20029;-78
2024/03/28 05:06:34;;;;;;;7.85;5.53;;;8.10;99.90;;;;;;5013320;28;20022;-78
2024/03/28 05:09:00;;;;;;;7.35;5.22;;;8.10;99.90;;;;;;5013518;28;20185;-78
2024/03/28 05:11:26;;;;;;;8.13;5.32;;;8.10;99.90;;;;;;5014046;28;20040;-78
2024/03/28 05:13:52;;;;;;;7.72;5.28;;;8.00;99.90;;;;;;5013270;28;20087;-78
2024/03/28 05:16:18;;;;;;;8.18;5.80;;;8.10;99.90;;;;;;5014297;28;20113;-78
2024/03/28 05:18:43;;;;;;;9.20;5.53;;;8.00;99.90;;;;;;5013708;28;20423;-78
2024/03/28 05:21:10;;;;;;;7.85;5.15;;;8.00;99.90;;;;;;5013921;28;20029;-78
2024/03/28 05:23:36;;;;;;;8.77;5.60;;;8.00;99.90;;;;;;5012624;28;20022;-79
2024/03/28 05:26:01;;;;;;;8.77;5.85;;;8.00;99.90;;;;;;5013195;28;20494;-78
2024/03/28 05:28:28;;;;;;;8.30;5.30;;;8.00;99.90;;;;;;5012400;28;20025;-78
2024/03/28 05:30:53;;;;;;;7.57;5.03;;;8.00;99.90;;;;;;5012948;28;20122;-78
2024/03/28 05:33:19;;;;;;;8.50;5.75;;;8.00;99.90;;;;;;5012783;28;20522;-79
2024/03/28 05:35:44;;;;;;;7.72;5.53;;;8.00;99.90;;;;;;5011445;28;20029;-79
2024/03/28 05:38:10;;;;;;;7.75;5.95;;;8.00;99.90;;;;;;5012019;28;20581;-79
2024/03/28 05:40:36;;;;;;;8.75;6.38;;;8.00;99.90;;;;;;5012776;28;20033;-79
2024/03/28 05:43:02;;;;;;;9.05;5.95;;;8.00;99.90;;;;;;5012226;28;20018;-78
2024/03/28 05:45:27;;;;;;;8.98;6.00;;;8.00;99.90;;;;;;5013098;28;20029;-78
2024/03/28 05:47:53;;;;;;;8.25;6.45;;;8.00;99.90;;;;;;5012351;28;20022;-78
2024/03/28 05:50:19;;;;;;;8.43;5.70;;;7.90;99.90;;;;;;5012792;28;20344;-78
2024/03/28 05:52:44;;;;;;;9.68;6.18;;;7.90;99.90;;;;;;5010947;28;20061;-78
2024/03/28 05:55:10;;;;;;;7.22;5.20;;;7.90;99.90;;;;;;5012591;28;20048;-78
2024/03/28 05:57:36;;;;;;;10.77;5.53;;;7.90;99.90;;;;;;5010708;28;20045;-78
2024/03/28 06:00:01;;;;;;;7.53;5.03;;;7.90;99.90;;;;;;5012114;28;20018;-78
2024/03/28 06:02:27;;;;;;;7.10;4.85;;;7.90;99.90;;;;;;5011997;28;20026;-78
2024/03/28 06:04:52;;;;;;;6.28;4.53;;;7.90;99.90;;;;;;5012285;28;20030;-78
2024/03/28 06:07:18;;;;;;;8.20;5.65;;;7.90;99.90;;;;;;5012374;28;20533;-78
2024/03/28 06:09:44;;;;;;;9.77;5.20;;;8.00;99.90;;;;;;5011688;28;20025;-79
2024/03/28 06:12:09;;;;;;;9.88;5.32;;;8.00;99.90;;;;;;5012606;28;20030;-78
2024/03/28 06:14:38;;;;;;;12.50;6.07;;;8.00;99.90;;;;;;5012140;28;20026;-79
2024/03/28 06:17:04;;;;;;;8.05;5.20;;;8.00;99.90;;;;;;5012540;28;20034;-79
2024/03/28 06:19:30;;;;;;;9.98;5.10;;;8.00;99.90;;;;;;5011240;28;20042;-79
2024/03/28 06:21:55;;;;;;;7.97;4.95;;;8.00;99.90;;;;;;5012107;28;20076;-79
2024/03/28 06:24:21;;;;;;;6.75;4.35;;;8.00;99.90;;;;;;5011289;28;20030;-79
2024/03/28 06:26:49;;;;;;;8.80;4.82;;;8.00;99.90;;;;;;5011842;28;20026;-78
2024/03/28 06:29:14;;;;;;;6.68;4.50;;;7.90;99.90;;;;;;5009958;28;20491;-78
2024/03/28 06:31:40;;;;;;;7.07;4.53;;;7.90;99.90;;;;;;5012019;28;20032;-79
2024/03/28 06:34:06;;;;;;;6.68;4.05;;;7.90;99.90;;;;;;5011855;28;20054;-79
2024/03/28 06:36:32;;;;;;;9.38;5.10;;;7.90;99.90;;;;;;5010482;28;20030;-79
2024/03/28 06:38:58;;;;;;;9.13;4.90;;;7.80;99.90;;;;;;5011347;28;20105;-79
2024/03/28 06:41:23;;;;;;;9.43;4.70;;;7.80;99.90;;;;;;5012328;28;20479;-79
2024/03/28 06:43:49;;;;;;;6.45;4.15;;;7.80;99.90;;;;;;5011379;28;20022;-79
2024/03/28 06:46:15;;;;;;;8.45;4.28;;;7.80;99.90;;;;;;5012270;28;20034;-79
2024/03/28 06:48:42;;;;;;;5.63;3.92;;;7.80;99.90;;;;;;5011251;28;20113;-79
2024/03/28 06:51:08;;;;;;;7.15;4.47;;;7.80;99.90;;;;;;5012182;28;20061;-79
2024/03/28 06:53:33;;;;;;;7.05;4.30;;;7.90;99.90;;;;;;5011321;28;20499;-79
2024/03/28 06:55:59;;;;;;;6.75;4.05;;;8.00;99.90;;;;;;5011502;28;20475;-79
2024/03/28 06:58:25;;;;;;;6.15;4.03;;;8.10;99.90;;;;;;5011082;28;20030;-79
2024/03/28 07:01:00;;;;;;;5.63;3.65;;;8.20;99.90;;;;;;5011848;28;20022;-79
2024/03/28 07:03:26;;;;;;;6.65;4.03;;;8.30;99.90;;;;;;5010904;28;20572;-79
2024/03/28 07:05:51;;;;;;;5.70;3.38;;;8.40;99.90;;;;;;5011785;28;20125;-79
2024/03/28 07:08:17;;;;;;;6.45;3.75;;;8.50;99.90;;;;;;5010924;28;20403;-79
2024/03/28 07:10:42;;;;;;;5.93;3.95;;;8.50;99.90;;;;;;5012006;28;20502;-79
2024/03/28 07:13:08;;;;;;;5.00;3.35;;;8.60;99.90;;;;;;5014587;28;20121;-79
2024/03/28 07:15:34;;;;;;;5.93;3.65;;;8.60;99.90;;;;;;5015557;28;20026;-79
2024/03/28 07:17:59;;;;;;;8.48;3.88;;;8.60;99.90;;;;;;5014513;28;20450;-79
2024/03/28 07:20:25;;;;;;;5.40;3.20;;;8.70;99.90;;;;;;5014063;28;20014;-79
2024/03/28 07:22:51;;;;;;;4.05;3.15;;;8.70;99.90;;;;;;5014612;28;20033;-79
2024/03/28 07:25:17;;;;;;;4.53;3.35;;;8.80;99.90;;;;;;5015381;28;20030;-79
2024/03/28 07:27:43;;;;;;;6.40;3.63;;;8.80;99.90;;;;;;5014690;28;20045;-79
2024/03/28 07:30:10;;;;;;;5.22;3.10;;;8.90;99.90;;;;;;5014633;28;20491;-79
2024/03/28 07:32:36;;;;;;;6.13;3.30;;;9.00;99.90;;;;;;5015085;28;20030;-79
2024/03/28 07:35:01;;;;;;;5.53;3.45;;;9.10;99.90;;;;;;5014732;28;20029;-79
2024/03/28 07:37:27;;;;;;;4.38;3.15;;;9.20;99.90;;;;;;5014954;28;20484;-79
2024/03/28 07:39:53;;;;;;;5.00;3.10;;;9.20;99.90;;;;;;5014689;28;20026;-79
2024/03/28 07:42:19;;;;;;;5.07;2.83;;;9.20;99.90;;;;;;5014997;28;20495;-80
2024/03/28 07:44:46;;;;;;;5.97;3.28;;;9.20;99.90;;;;;;5013138;28;20022;-79
2024/03/28 07:47:11;;;;;;;4.63;3.10;;;9.20;99.90;;;;;;5013605;28;20092;-79
2024/03/28 07:49:37;;;;;;;5.30;3.03;;;9.20;99.90;;;;;;5014124;28;20057;-78
2024/03/28 07:52:02;;;;;;;6.40;3.50;;;9.20;99.90;;;;;;5013587;28;20018;-79
2024/03/28 07:54:28;;;;;;;5.32;3.30;;;9.20;99.90;;;;;;5014340;28;20018;-79
2024/03/28 07:56:54;;;;;;;4.85;2.90;;;9.20;99.90;;;;;;5014906;28;20491;-79
2024/03/28 07:59:20;;;;;;;5.45;2.90;;;9.20;99.90;;;;;;5014145;28;20487;-79
2024/03/28 08:01:46;;;;;;;5.75;2.90;;;9.30;99.90;;;;;;5014544;28;20392;-79
2024/03/28 08:04:12;;;;;;;3.03;2.13;;;9.30;99.90;;;;;;5014120;28;20022;-79
2024/03/28 08:06:39;;;;;;;5.03;2.20;;;9.20;99.90;;;;;;5014839;28;20117;-79
2024/03/28 08:09:05;;;;;;;3.28;2.13;;;9.30;99.90;;;;;;5014283;28;20030;-79
2024/03/28 08:11:31;;;;;;;4.57;2.15;;;9.20;99.90;;;;;;5015183;28;20025;-79
2024/03/28 08:13:56;;;;;;;3.20;1.88;;;9.20;99.90;;;;;;5014217;28;20080;-79
2024/03/28 08:16:22;;;;;;;4.40;2.15;;;9.30;99.90;;;;;;5015463;28;20026;-79
2024/03/28 08:18:48;;;;;;;2.97;1.85;;;9.30;99.90;;;;;;5014904;28;20046;-80
2024/03/28 08:21:15;;;;;;;4.63;2.00;;;9.30;99.90;;;;;;5014467;28;20390;-76
2024/03/28 08:23:42;;;;;;;4.32;2.05;;;9.20;99.90;;;;;;5013121;28;20109;-79
2024/03/28 08:26:09;;;;;;;3.15;1.83;;;9.20;99.90;;;;;;5015674;28;20030;-78
2024/03/28 08:28:34;;;;;;;3.35;2.17;;;9.10;99.90;;;;;;5014265;28;20026;-78
2024/03/28 08:31:00;;;;;;;3.85;2.67;;;9.10;99.90;;;;;;5014890;28;20030;-77
2024/03/28 08:33:27;;;;;;;4.55;2.30;;;9.00;99.90;;;;;;5013991;28;20551;-78
2024/03/28 08:35:53;;;;;;;3.42;2.20;;;9.00;99.90;;;;;;5015381;28;20040;-77
2024/03/28 08:38:18;;;;;;;2.95;2.20;;;8.90;99.90;;;;;;5014895;28;20096;-77
2024/03/28 08:40:44;;;;;;;3.75;2.50;;;8.80;99.90;;;;;;5015572;28;20018;-77
2024/03/28 08:43:10;;;;;;;4.60;2.50;;;8.80;99.90;;;;;;5014429;28;20045;-77
2024/03/28 08:45:35;;;;;;;3.30;2.10;;;8.70;99.90;;;;;;5016573;28;20030;-77
2024/03/28 08:48:02;;;;;;;5.32;2.55;;;8.60;99.90;;;;;;5013577;28;20056;-76
2024/03/28 08:50:27;;;;;;;4.05;2.47;;;8.50;99.90;;;;;;5015134;28;20025;-77
2024/03/28 08:52:54;;;;;;;3.38;2.13;;;8.50;99.90;;;;;;5013276;28;20017;-76
2024/03/28 08:55:24;;;;;;;3.15;2.25;;;8.40;99.90;;;;;;5012758;28;20022;-77
2024/03/28 08:57:51;;;;;;;3.15;2.15;;;8.40;99.90;;;;;;5014327;28;20018;-77
2024/03/28 09:00:19;;;;;;;3.15;2.15;;;8.30;99.90;;;;;;5013798;28;20029;-78
2024/03/28 09:02:46;;;;;;;3.53;2.00;;;8.30;99.90;;;;;;5014376;28;20022;-78
2024/03/28 09:05:15;;;;;;;3.92;2.22;;;8.30;99.90;;;;;;5013015;28;20026;-78
2024/03/28 09:07:41;;;;;;;3.90;2.05;;;8.30;99.90;;;;;;5013981;28;20076;-78
2024/03/28 09:10:07;;;;;;;5.07;2.42;;;8.20;99.90;;;;;;5013374;28;20034;-78
2024/03/28 09:12:36;;;;;;;3.38;2.20;;;8.20;99.90;;;;;;5013496;28;20034;-78
2024/03/28 09:15:03;;;;;;;3.17;2.25;;;8.20;99.90;;;;;;5013069;28;20037;-78
2024/03/28 09:17:29;;;;;;;3.28;2.30;;;8.20;99.90;;;;;;5013182;28;20022;-77
2024/03/28 09:19:55;;;;;;;3.58;2.33;;;8.20;99.90;;;;;;5012899;28;20458;-78
2024/03/28 09:22:25;;;;;;;3.90;1.98;;;8.20;99.90;;;;;;5013722;28;20108;-78
2024/03/28 09:24:51;;;;;;;3.88;2.20;;;8.20;99.90;;;;;;5013099;28;20029;-77
2024/03/28 09:27:16;;;;;;;3.85;2.35;;;8.10;99.90;;;;;;5015563;28;20029;-78
2024/03/28 09:29:44;;;;;;;3.97;2.58;;;8.10;99.90;;;;;;5013427;28;20026;-77
2024/03/28 09:32:10;;;;;;;5.53;2.70;;;8.10;99.90;;;;;;5014151;28;20026;-78
2024/03/28 09:34:38;;;;;;;3.80;2.38;;;8.10;99.90;;;;;;5011010;28;20422;-77
2024/03/28 09:37:07;;;;;;;5.35;2.60;;;8.10;99.90;;;;;;5013373;28;20026;-78
2024/03/28 09:39:33;;;;;;;4.30;2.60;;;8.10;99.90;;;;;;5012821;28;20037;-77
2024/03/28 09:42:06;;;;;;;3.88;2.53;;;8.10;99.90;;;;;;5013620;28;20069;-78
2024/03/28 09:44:33;;;;;;;4.90;2.88;;;8.10;99.90;;;;;;5012443;28;20045;-77
2024/03/28 09:46:59;;;;;;;4.15;2.75;;;8.00;99.90;;;;;;5012959;28;20030;-78
2024/03/28 09:49:27;;;;;;;4.88;3.10;;;8.10;99.90;;;;;;5012481;28;20506;-78
2024/03/28 09:51:56;;;;;;;3.67;2.42;;;8.00;99.90;;;;;;5012873;28;20018;-78
2024/03/28 09:54:22;;;;;;;3.88;2.58;;;8.00;99.90;;;;;;5012450;28;20018;-78
2024/03/28 09:56:47;;;;;;;3.83;2.58;;;8.00;99.90;;;;;;5012570;28;20029;-78
2024/03/28 09:59:13;;;;;;;3.13;2.10;;;8.00;99.90;;;;;;5012149;28;20037;-79
2024/03/28 10:01:41;;;;;;;3.60;2.55;;;8.00;99.90;;;;;;5012757;28;20048;-78
2024/03/28 10:04:17;;;;;;;6.57;2.20;;;8.00;99.90;;;;;;5012062;28;20022;-78
2024/03/28 10:06:50;;;;;;;5.30;2.50;;;8.00;99.90;;;;;;5012560;28;20101;-78
2024/03/28 10:09:16;;;;;;;4.25;2.38;;;8.00;99.90;;;;;;5011969;28;20018;-77
2024/03/28 10:11:42;;;;;;;3.65;2.30;;;8.10;99.90;;;;;;5012383;28;20026;-78
2024/03/28 10:14:18;;;;;;;4.70;2.92;;;8.10;99.90;;;;;;5010391;28;20026;-79
2024/03/28 10:16:48;;;;;;;5.35;2.83;;;8.10;99.90;;;;;;5012231;28;20057;-78
2024/03/28 10:19:18;;;;;;;3.38;2.35;;;8.10;99.90;;;;;;5011690;28;20049;-77
2024/03/28 10:21:44;;;;;;;6.00;2.40;;;8.10;99.90;;;;;;5010920;28;20014;-77
2024/03/28 10:24:19;;;;;;;3.30;2.08;;;8.10;99.90;;;;;;5011674;28;20048;-76
2024/03/28 10:26:45;;;;;;;4.18;2.00;;;8.20;99.90;;;;;;5012149;28;20032;-77
2024/03/28 10:29:12;;;;;;;2.83;1.90;;;8.20;99.90;;;;;;5011479;28;20026;-77
2024/03/28 10:31:39;;;;;;;2.42;1.92;;;8.20;99.90;;;;;;5012388;28;20030;-77
2024/03/28 10:34:12;;;;;;;3.38;2.10;;;8.20;99.90;;;;;;5011575;28;20030;-77
2024/03/28 10:36:38;;;;;;;2.85;1.63;;;8.20;99.90;;;;;;5012025;28;20040;-77
2024/03/28 10:39:08;;;;;;;2.53;1.30;;;8.20;99.90;;;;;;5011499;28;20029;-77
2024/03/28 10:41:34;;;;;;;1.77;1.30;;;8.10;99.90;;;;;;5012102;28;20030;-77
2024/03/28 10:44:01;;;;;;;2.78;1.20;;;8.10;99.90;;;;;;5011485;28;20521;-77
2024/03/28 10:46:28;;;;;;;3.38;1.30;;;8.10;99.90;;;;;;5013261;28;20589;-78
2024/03/28 10:49:05;;;;;;;2.40;1.40;;;8.10;99.90;;;;;;5015773;28;20033;-77
2024/03/28 10:51:42;;;;;;;4.50;1.63;;;8.10;99.90;;;;;;5016279;28;20030;-78
2024/03/28 10:54:24;;;;;;;3.00;1.27;;;8.10;99.90;;;;;;5015900;28;20804;-77
2024/03/28 10:56:51;;;;;;;1.90;1.30;;;8.10;99.90;;;;;;5016014;28;20034;-77
2024/03/28 10:59:20;;;;;;;1.83;1.33;;;8.10;99.90;;;;;;5015403;28;20113;-77
2024/03/28 11:01:47;;;;;;;1.75;1.38;;;8.10;99.90;;;;;;5015590;28;20502;-77
2024/03/28 11:04:18;;;;;;;1.70;1.48;;;8.10;99.90;;;;;;5014795;28;20395;-77
2024/03/28 11:06:44;;;;;;;2.85;1.40;;;8.10;99.90;;;;;;5014417;28;20022;-77
2024/03/28 11:09:13;;;;;;;2.22;1.65;;;8.20;99.90;;;;;;5015180;28;20018;-76
2024/03/28 11:11:39;;;;;;;2.90;1.63;;;8.20;99.90;;;;;;5015544;28;20030;-76
2024/03/28 11:14:05;;;;;;;3.97;1.75;;;8.30;99.90;;;;;;5014887;28;20026;-77
2024/03/28 11:16:32;;;;;;;5.47;2.17;;;8.40;99.90;;;;;;5015091;28;20052;-77
2024/03/28 11:19:00;;;;;;;2.58;1.70;;;8.40;99.90;;;;;;5014513;28;20045;-77
2024/03/28 11:21:29;;;;;;;3.25;1.90;;;8.50;99.90;;;;;;5015580;28;20017;-77
2024/03/28 11:23:54;;;;;;;2.42;1.88;;;8.50;99.90;;;;;;5015108;28;20101;-77
2024/03/28 11:26:25;;;;;;;4.88;2.45;;;8.60;99.90;;;;;;5015310;28;20076;-76
2024/03/28 11:29:01;;;;;;;2.83;2.08;;;8.60;99.90;;;;;;5014425;28;20030;-76
2024/03/28 11:31:27;;;;;;;2.92;2.25;;;8.70;99.90;;;;;;5014879;28;20077;-77
2024/03/28 11:34:00;;;;;;;5.82;2.20;;;8.70;99.90;;;;;;5014480;28;20106;-77
2024/03/28 11:36:30;;;;;;;4.55;2.50;;;8.80;99.90;;;;;;5015024;28;20030;-77
2024/03/28 11:38:56;;;;;;;5.07;2.60;;;8.80;99.90;;;;;;5014397;28;20029;-77
2024/03/28 11:41:26;;;;;;;4.93;3.00;;;8.90;99.90;;;;;;5013666;28;20108;-77
2024/03/28 11:43:53;;;;;;;5.30;2.88;;;9.00;99.90;;;;;;5014230;28;20545;-77
2024/03/28 11:46:22;;;;;;;6.75;3.45;;;9.10;99.90;;;;;;5014962;28;20072;-76
2024/03/28 11:48:54;;;;;;;5.03;2.60;;;9.10;99.90;;;;;;5012714;28;20022;-77
2024/03/28 11:51:20;;;;;;;7.05;3.33;;;9.10;99.90;;;;;;5015055;28;20026;-77
2024/03/28 11:53:47;;;;;;;8.77;3.00;;;9.20;99.90;;;;;;5014081;28;20037;-77
2024/03/28 11:56:13;;;;;;;9.35;3.40;;;9.20;99.90;;;;;;5014419;28;20057;-76
2024/03/28 11:58:39;;;;;;;7.97;4.80;;;9.20;99.90;;;;;;5013028;28;20034;-77
2024/03/28 12:01:05;;;;;;;8.20;4.50;;;9.20;99.90;;;;;;5014552;28;20064;-77
2024/03/28 12:03:31;;;;;;;10.63;4.47;;;9.20;99.90;;;;;;5014326;28;20495;-77
2024/03/28 12:05:58;;;;;;;6.60;4.03;;;9.30;99.90;;;;;;5014329;28;20106;-77
2024/03/28 12:08:29;;;;;;;7.38;3.63;;;9.40;99.90;;;;;;5014588;28;20029;-77
2024/03/28 12:11:05;;;;;;;8.27;3.95;;;9.40;99.90;;;;;;5014135;28;20048;-77
2024/03/28 12:13:32;;;;;;;7.00;3.78;;;9.50;99.90;;;;;;5014118;28;20032;-77
2024/03/28 12:16:00;;;;;;;8.68;4.45;;;9.60;99.90;;;;;;5012620;28;20033;-78
2024/03/28 12:18:26;;;;;;;7.30;3.95;;;9.70;99.90;;;;;;5012785;28;20569;-77
2024/03/28 12:21:00;;;;;;;5.72;3.50;;;9.80;99.90;;;;;;5013429;28;20391;-77
2024/03/28 12:23:26;;;;;;;5.38;4.15;;;10.00;99.90;;;;;;5014005;28;20049;-77
2024/03/28 12:25:52;;;;;;;8.15;3.70;;;10.00;99.90;;;;;;5013365;28;20046;-77
2024/03/28 12:28:19;;;;;;;7.20;3.80;;;10.10;99.90;;;;;;5014060;28;20108;-77
2024/03/28 12:30:49;;;;;;;5.47;3.67;;;10.30;99.90;;;;;;5013713;28;20057;-77
2024/03/28 12:33:16;;;;;;;8.23;3.80;;;10.30;99.90;;;;;;5014272;28;20107;-77
2024/03/28 12:35:43;;;;;;;6.07;3.30;;;10.50;99.90;;;;;;5013119;28;20448;-78
2024/03/28 12:38:14;;;;;;;9.40;3.35;;;10.60;99.90;;;;;;5013901;28;20081;-77
2024/03/28 12:40:43;;;;;;;;;;;10.60;99.90;;;;;;5014039;28;20105;-77
2024/03/28 12:43:13;;;;;;;5.18;2.83;;;10.70;99.90;;;;;;5014052;28;19906;-77
2024/03/28 12:45:39;;;;;;;6.35;3.28;;;10.90;99.90;;;;;;5011911;28;20018;-77
2024/03/28 12:48:06;;;;;;;5.75;3.10;;;11.00;99.90;;;;;;5013947;28;20029;-77
2024/03/28 12:50:32;;;;;;;9.02;2.83;;;11.00;99.90;;;;;;5011994;28;20104;-78
2024/03/28 12:52:58;;;;;;;4.88;2.30;;;11.10;99.90;;;;;;5013621;28;20026;-77
2024/03/28 12:55:24;;;;;;;6.57;2.42;;;11.10;99.90;;;;;;5012934;28;20033;-77
2024/03/28 12:57:49;;;;;;;6.82;2.42;;;11.10;99.90;;;;;;5013784;28;20110;-77
2024/03/28 13:00:15;;;;;;;5.15;2.35;;;11.20;99.90;;;;;;5011460;28;20511;-78